createdAt,value
2022-09-01T00:04:04.267Z,14.80
2022-09-01T00:10:08.849Z,14.83
2022-09-01T00:16:14.228Z,14.78
2022-09-01T00:22:16.596Z,15.00
2022-09-01T00:28:18.684Z,14.91
2022-09-01T00:34:20.868Z,15.06
2022-09-01T00:40:22.973Z,15.21
2022-09-01T00:46:33.742Z,15.11
2022-09-01T00:52:48.341Z,14.95
2022-09-01T00:58:52.795Z,15.12
2022-09-01T01:05:00.512Z,14.95
2022-09-01T01:11:17.858Z,14.63
2022-09-01T01:17:22.171Z,14.47
2022-09-01T01:23:37.107Z,13.97
2022-09-01T01:29:39.937Z,13.55
2022-09-01T01:35:43.737Z,13.48
2022-09-01T01:41:48.898Z,13.14
2022-09-01T01:47:53.666Z,13.11
2022-09-01T01:53:56.987Z,12.72
2022-09-01T01:59:58.948Z,12.42
2022-09-01T02:06:04.710Z,12.25
2022-09-01T02:12:08.588Z,12.11
2022-09-01T02:18:42.787Z,11.89
2022-09-01T02:24:49.163Z,11.75
2022-09-01T02:30:55.143Z,11.61
2022-09-01T02:36:58.274Z,11.52
2022-09-01T02:43:01.561Z,11.50
2022-09-01T02:49:05.425Z,11.33
2022-09-01T02:55:09.113Z,11.43
2022-09-01T03:01:22.196Z,11.41
2022-09-01T03:07:26.045Z,11.45
2022-09-01T03:13:28.361Z,11.33
2022-09-01T03:19:34.752Z,11.40
2022-09-01T03:25:37.762Z,11.32
2022-09-01T03:31:39.811Z,11.34
2022-09-01T03:37:44.262Z,11.20
2022-09-01T03:43:48.339Z,11.13
2022-09-01T03:49:51.790Z,11.19
2022-09-01T03:55:54.966Z,11.17
2022-09-01T04:01:58.463Z,11.08
2022-09-01T04:08:05.982Z,11.20
2022-09-01T04:14:11.220Z,11.04
2022-09-01T04:20:15.348Z,10.97
2022-09-01T04:26:24.006Z,10.97
2022-09-01T04:32:26.061Z,10.86
2022-09-01T04:38:29.649Z,11.11
2022-09-01T04:44:31.716Z,11.18
2022-09-01T04:50:34.982Z,10.93
2022-09-01T04:56:37.379Z,11.07
2022-09-01T05:02:40.506Z,11.15
2022-09-01T05:08:43.424Z,11.18
2022-09-01T05:14:48.666Z,11.46
2022-09-01T05:20:53.069Z,11.41
2022-09-01T05:26:55.035Z,11.56
2022-09-01T05:32:57.041Z,11.78
2022-09-01T05:39:00.621Z,11.99
2022-09-01T05:45:02.680Z,12.36
2022-09-01T05:51:14.386Z,12.75
2022-09-01T05:57:34.751Z,12.78
2022-09-01T06:03:38.003Z,13.10
2022-09-01T06:09:45.251Z,13.46
2022-09-01T06:15:50.177Z,13.53
2022-09-01T06:21:53.234Z,13.74
2022-09-01T06:27:55.276Z,13.91
2022-09-01T06:33:57.713Z,14.14
2022-09-01T06:39:59.661Z,14.53
2022-09-01T06:46:03.017Z,15.21
2022-09-01T06:52:05.691Z,20.08
2022-09-01T06:58:13.962Z,25.58
2022-09-01T07:04:23.090Z,27.95
2022-09-01T07:10:28.274Z,26.82
2022-09-01T07:16:38.591Z,23.68
2022-09-01T07:29:07.488Z,20.71
2022-09-01T07:35:11.921Z,20.35
2022-09-01T07:47:53.367Z,20.39
2022-09-01T07:53:56.297Z,20.73
2022-09-01T07:59:58.278Z,20.88
2022-09-01T08:06:07.844Z,21.40
2022-09-01T08:12:09.789Z,21.81
2022-09-01T08:18:14.309Z,22.45
2022-09-01T08:24:16.611Z,22.53
2022-09-01T08:30:18.918Z,22.27
2022-09-01T08:36:24.869Z,22.35
2022-09-01T08:42:42.662Z,23.08
2022-09-01T08:49:24.195Z,23.29
2022-09-01T08:55:35.501Z,23.30
2022-09-01T09:02:16.475Z,23.92
2022-09-01T09:08:35.892Z,24.29
2022-09-01T09:14:54.637Z,25.70
2022-09-01T09:21:04.220Z,26.12
2022-09-01T09:27:07.060Z,25.43
2022-09-01T09:33:51.272Z,25.62
2022-09-01T09:40:19.092Z,25.41
2022-09-01T09:46:36.403Z,24.92
2022-09-01T09:52:38.506Z,25.28
2022-09-01T09:58:43.216Z,25.05
2022-09-01T10:04:45.250Z,25.01
2022-09-01T10:10:57.453Z,24.78
2022-09-01T10:17:19.131Z,24.44
2022-09-01T10:23:21.481Z,24.80
2022-09-01T10:29:47.501Z,25.17
2022-09-01T10:35:53.684Z,25.08
2022-09-01T10:42:07.673Z,24.55
2022-09-01T10:48:51.762Z,24.78
2022-09-01T10:54:51.596Z,24.33
2022-09-01T11:01:11.054Z,24.08
2022-09-01T11:07:38.836Z,23.90
2022-09-01T11:13:55.907Z,23.99
2022-09-01T11:20:24.682Z,23.50
2022-09-01T11:26:32.580Z,23.23
2022-09-01T11:32:38.383Z,23.38
2022-09-01T11:39:30.095Z,24.01
2022-09-01T11:45:38.107Z,25.10
2022-09-01T11:51:47.813Z,27.25
2022-09-01T11:57:49.775Z,27.40
2022-09-01T12:03:52.880Z,26.84
2022-09-01T12:09:55.684Z,26.51
2022-09-01T12:16:19.297Z,26.55
2022-09-01T12:22:23.095Z,27.89
2022-09-01T12:28:31.220Z,28.26
2022-09-01T12:34:34.099Z,29.10
2022-09-01T12:40:36.813Z,30.32
2022-09-01T12:46:46.632Z,29.10
2022-09-01T12:53:00.109Z,28.35
2022-09-01T12:59:36.032Z,27.02
2022-09-01T13:05:42.674Z,26.93
2022-09-01T13:18:10.713Z,27.81
2022-09-01T13:24:13.512Z,30.11
2022-09-01T13:30:20.166Z,29.68
2022-09-01T13:42:54.243Z,29.50
2022-09-01T13:49:04.459Z,30.17
2022-09-01T13:55:30.272Z,32.76
2022-09-01T14:01:33.044Z,33.22
2022-09-01T14:07:35.223Z,34.21
2022-09-01T14:13:37.968Z,33.06
2022-09-01T14:19:39.887Z,30.66
2022-09-01T14:25:50.183Z,29.71
2022-09-01T14:31:52.189Z,28.91
2022-09-01T14:37:55.432Z,28.53
2022-09-01T14:44:03.393Z,28.47
2022-09-01T14:56:14.923Z,36.10
2022-09-01T15:02:16.939Z,35.87
2022-09-01T15:08:19.752Z,31.68
2022-09-01T15:14:21.900Z,30.08
2022-09-01T15:20:43.255Z,28.50
2022-09-01T15:26:47.223Z,27.78
2022-09-01T15:32:54.419Z,26.89
2022-09-01T15:38:58.496Z,26.22
2022-09-01T15:45:00.487Z,25.51
2022-09-01T15:51:20.398Z,25.31
2022-09-01T15:57:22.328Z,25.59
2022-09-01T16:03:24.554Z,26.17
2022-09-01T16:09:26.788Z,26.03
2022-09-01T16:15:28.773Z,27.01
2022-09-01T16:21:53.528Z,26.27
2022-09-01T16:27:56.305Z,25.41
2022-09-01T16:34:10.114Z,24.74
2022-09-01T16:40:30.251Z,24.54
2022-09-01T16:46:43.191Z,23.80
2022-09-01T16:53:14.280Z,23.38
2022-09-01T16:59:41.785Z,23.17
2022-09-01T17:06:02.682Z,22.96
2022-09-01T17:12:32.551Z,22.70
2022-09-01T17:18:51.383Z,22.38
2022-09-01T17:31:14.644Z,22.94
2022-09-01T17:37:41.069Z,23.63
2022-09-01T17:44:16.611Z,24.02
2022-09-01T17:50:51.998Z,23.04
2022-09-01T17:57:07.354Z,22.05
2022-09-01T18:03:46.463Z,21.50
2022-09-01T18:09:55.836Z,20.92
2022-09-01T18:16:00.692Z,20.29
2022-09-01T18:22:17.056Z,19.74
2022-09-01T18:28:19.605Z,19.38
2022-09-01T18:34:52.842Z,18.99
2022-09-01T18:41:16.530Z,18.64
2022-09-01T18:47:49.184Z,18.23
2022-09-01T18:54:23.830Z,17.82
2022-09-01T19:01:01.041Z,17.49
2022-09-01T19:08:02.659Z,17.31
2022-09-01T19:14:25.830Z,17.20
2022-09-01T19:21:08.144Z,16.99
2022-09-01T19:27:15.924Z,16.87
2022-09-01T19:33:27.501Z,16.79
2022-09-01T19:39:36.800Z,16.91
2022-09-01T19:45:58.991Z,17.32
2022-09-01T19:52:26.406Z,17.74
2022-09-01T19:58:51.596Z,17.88
2022-09-01T20:05:27.910Z,17.87
2022-09-01T20:12:01.997Z,17.88
2022-09-01T20:18:21.111Z,18.05
2022-09-01T20:24:38.445Z,17.85
2022-09-01T20:30:51.104Z,17.88
2022-09-01T20:37:12.611Z,17.27
2022-09-01T20:43:31.258Z,17.31
2022-09-01T20:49:36.097Z,16.99
2022-09-01T20:55:56.767Z,17.05
2022-09-01T21:02:20.431Z,17.21
2022-09-01T21:08:34.602Z,17.14
2022-09-01T21:15:10.037Z,16.88
2022-09-01T21:21:53.307Z,16.80
2022-09-01T21:27:59.742Z,16.49
2022-09-01T21:34:01.676Z,16.31
2022-09-01T21:40:06.323Z,16.28
2022-09-01T21:46:09.999Z,16.25
2022-09-01T21:52:12.046Z,16.11
2022-09-01T21:58:14.594Z,15.66
2022-09-01T22:04:18.223Z,15.39
2022-09-01T22:10:25.384Z,15.11
2022-09-01T22:16:27.802Z,14.76
2022-09-01T22:22:29.822Z,14.49
2022-09-01T22:28:32.719Z,14.26
2022-09-01T22:34:35.498Z,14.18
2022-09-01T22:40:57.878Z,14.16
2022-09-01T22:46:59.826Z,14.05
2022-09-01T22:53:01.826Z,14.03
2022-09-01T22:59:09.973Z,13.93
2022-09-01T23:05:12.101Z,13.72
2022-09-01T23:11:14.636Z,13.51
2022-09-01T23:17:16.612Z,13.49
2022-09-01T23:23:18.686Z,13.31
2022-09-01T23:29:20.964Z,13.42
2022-09-01T23:35:22.919Z,13.43
2022-09-01T23:41:32.139Z,13.38
2022-09-01T23:47:34.376Z,13.25
2022-09-01T23:53:39.021Z,13.21
2022-09-01T23:59:40.982Z,13.12
